createdAt,value
2023-05-12T00:01:54.025Z,98371.81
2023-05-12T00:05:04.442Z,98382.25
2023-05-12T00:08:10.012Z,98388.72
2023-05-12T00:11:16.777Z,98385.34
2023-05-12T00:14:23.979Z,98383.84
2023-05-12T00:17:30.457Z,98383.22
2023-05-12T00:20:39.173Z,98384.28
2023-05-12T00:23:46.334Z,98381.13
2023-05-12T00:26:51.961Z,98378.81
2023-05-12T00:29:58.647Z,98389.69
2023-05-12T00:33:04.268Z,98375.03
2023-05-12T00:36:13.939Z,98383.16
2023-05-12T00:39:19.675Z,98374.63
2023-05-12T00:42:26.038Z,98379.50
2023-05-12T00:45:32.637Z,98379.91
2023-05-12T00:48:39.687Z,98382.75
2023-05-12T00:51:49.310Z,98391.06
2023-05-12T00:54:56.078Z,98385.16
2023-05-12T00:58:02.876Z,98389.03
2023-05-12T01:01:10.466Z,98390.16
2023-05-12T01:04:17.482Z,98393.97
2023-05-12T01:07:30.854Z,98388.91
2023-05-12T01:10:37.252Z,98396.28
2023-05-12T01:13:44.350Z,98393.84
2023-05-12T01:16:56.381Z,98391.41
2023-05-12T01:20:09.062Z,98395.94
2023-05-12T01:23:23.263Z,98386.97
2023-05-12T01:26:33.690Z,98397.69
2023-05-12T01:29:42.096Z,98386.09
2023-05-12T01:32:49.220Z,98390.31
2023-05-12T01:35:55.735Z,98396.63
2023-05-12T01:39:02.200Z,98390.28
2023-05-12T01:42:11.647Z,98404.38
2023-05-12T01:45:18.034Z,98390.06
2023-05-12T01:48:24.411Z,98405.84
2023-05-12T01:51:31.139Z,98400.13
2023-05-12T01:54:37.802Z,98397.59
2023-05-12T01:57:47.147Z,98396.94
2023-05-12T02:00:53.627Z,98405.81
2023-05-12T02:04:01.460Z,98404.09
2023-05-12T02:07:07.903Z,98399.22
2023-05-12T02:10:14.557Z,98404.28
2023-05-12T02:13:23.637Z,98403.63
2023-05-12T02:16:30.224Z,98398.66
2023-05-12T02:19:35.768Z,98408.47
2023-05-12T02:22:42.221Z,98397.19
2023-05-12T02:25:47.797Z,98401.72
2023-05-12T02:28:56.880Z,98392.69
2023-05-12T02:32:02.915Z,98405.66
2023-05-12T02:35:11.375Z,98409.31
2023-05-12T02:38:17.965Z,98405.25
2023-05-12T02:41:24.429Z,98410.63
2023-05-12T02:44:32.890Z,98405.00
2023-05-12T02:47:39.348Z,98408.47
2023-05-12T02:50:45.291Z,98408.69
2023-05-12T02:53:51.944Z,98407.19
2023-05-12T02:56:58.543Z,98417.22
2023-05-12T03:00:09.644Z,98404.00
2023-05-12T03:03:19.121Z,98408.34
2023-05-12T03:06:25.858Z,98409.06
2023-05-12T03:09:32.073Z,98395.00
2023-05-12T03:12:38.551Z,98408.03
2023-05-12T03:15:46.838Z,98411.06
2023-05-12T03:18:53.282Z,98410.94
2023-05-12T03:21:59.219Z,98410.94
2023-05-12T03:25:06.900Z,98416.38
2023-05-12T03:28:13.194Z,98409.91
2023-05-12T03:31:23.007Z,98408.88
2023-05-12T03:34:29.027Z,98415.66
2023-05-12T03:37:37.973Z,98408.34
2023-05-12T03:40:45.123Z,98414.16
2023-05-12T03:43:52.070Z,98405.13
2023-05-12T03:47:00.477Z,98404.00
2023-05-12T03:50:07.773Z,98412.44
2023-05-12T03:53:13.442Z,98404.75
2023-05-12T03:56:20.211Z,98404.09
2023-05-12T03:59:26.736Z,98413.94
2023-05-12T04:02:36.224Z,98414.78
2023-05-12T04:05:43.085Z,98407.44
2023-05-12T04:08:49.457Z,98418.63
2023-05-12T04:11:55.691Z,98420.22
2023-05-12T04:15:02.826Z,98427.09
2023-05-12T04:18:11.096Z,98419.53
2023-05-12T04:21:18.908Z,98426.88
2023-05-12T04:24:25.728Z,98425.53
2023-05-12T04:27:32.082Z,98430.78
2023-05-12T04:30:37.939Z,98446.19
2023-05-12T04:33:48.329Z,98426.44
2023-05-12T04:36:54.132Z,98415.72
2023-05-12T04:40:00.778Z,98428.28
2023-05-12T04:43:06.376Z,98420.09
2023-05-12T04:46:13.040Z,98424.66
2023-05-12T04:49:21.597Z,98425.53
2023-05-12T04:52:28.177Z,98388.38
2023-05-12T04:55:33.783Z,98402.78
2023-05-12T04:58:40.416Z,98431.38
2023-05-12T05:01:48.433Z,98424.56
2023-05-12T05:04:57.746Z,98432.59
2023-05-12T05:08:04.325Z,98441.38
2023-05-12T05:11:11.861Z,98436.22
2023-05-12T05:14:17.499Z,98436.41
2023-05-12T05:17:24.071Z,98442.06
2023-05-12T05:20:33.066Z,98446.53
2023-05-12T05:23:39.799Z,98442.59
2023-05-12T05:26:46.064Z,98435.22
2023-05-12T05:29:52.657Z,98441.41
2023-05-12T05:32:58.284Z,98428.44
2023-05-12T05:36:08.220Z,98446.25
2023-05-12T05:39:14.135Z,98444.47
2023-05-12T05:42:20.553Z,98449.06
2023-05-12T05:45:28.048Z,98447.44
2023-05-12T05:48:36.703Z,98444.88
2023-05-12T05:51:45.158Z,98446.88
2023-05-12T05:54:51.807Z,98449.47
2023-05-12T05:57:58.619Z,98457.94
2023-05-12T06:01:06.168Z,98451.63
2023-05-12T06:04:13.051Z,98449.78
2023-05-12T06:07:22.894Z,98455.81
2023-05-12T06:10:28.773Z,98455.31
2023-05-12T06:13:35.305Z,98453.19
2023-05-12T06:16:40.911Z,98463.06
2023-05-12T06:19:49.964Z,98459.94
2023-05-12T06:22:58.223Z,98464.03
2023-05-12T06:26:04.698Z,98461.63
2023-05-12T06:29:10.844Z,98453.56
2023-05-12T06:32:17.525Z,98459.97
2023-05-12T06:35:23.217Z,98463.44
2023-05-12T06:38:33.001Z,98452.38
2023-05-12T06:41:38.819Z,98463.56
2023-05-12T06:44:46.131Z,98452.84
2023-05-12T06:47:51.775Z,98462.06
2023-05-12T06:50:58.458Z,98465.47
2023-05-12T06:54:10.601Z,98459.88
2023-05-12T06:57:17.183Z,98453.47
2023-05-12T07:00:23.480Z,98459.13
2023-05-12T07:03:30.412Z,98446.56
2023-05-12T07:06:36.374Z,98454.94
2023-05-12T07:09:46.344Z,98452.38
2023-05-12T07:12:53.553Z,98439.97
2023-05-12T07:16:00.772Z,98461.75
2023-05-12T07:19:06.574Z,98462.13
2023-05-12T07:22:13.707Z,98456.59
2023-05-12T07:25:22.587Z,98448.38
2023-05-12T07:28:30.262Z,98441.84
2023-05-12T07:31:36.395Z,98449.34
2023-05-12T07:34:42.877Z,98454.25
2023-05-12T07:37:48.810Z,98443.38
2023-05-12T07:40:58.351Z,98449.31
2023-05-12T07:44:05.398Z,98445.91
2023-05-12T07:47:11.884Z,98454.00
2023-05-12T07:50:17.616Z,98446.44
2023-05-12T07:53:24.560Z,98455.03
2023-05-12T07:56:32.866Z,98449.19
2023-05-12T07:59:39.373Z,98439.09
2023-05-12T08:02:47.642Z,98456.06
2023-05-12T08:05:54.518Z,98450.31
2023-05-12T08:09:00.269Z,98452.56
2023-05-12T08:12:10.037Z,98453.41
2023-05-12T08:15:16.345Z,98455.28
2023-05-12T08:18:23.173Z,98454.16
2023-05-12T08:21:29.026Z,98462.16
2023-05-12T08:24:35.542Z,98451.63
2023-05-12T08:27:44.006Z,98459.22
2023-05-12T08:30:50.553Z,98461.28
2023-05-12T08:34:08.949Z,98448.44
2023-05-12T08:37:17.380Z,98447.34
2023-05-12T08:40:26.851Z,98455.78
2023-05-12T08:43:45.370Z,98445.72
2023-05-12T08:46:52.139Z,98465.88
2023-05-12T08:50:08.502Z,98462.50
2023-05-12T08:53:15.458Z,98460.59
2023-05-12T08:59:41.117Z,98460.81
2023-05-12T09:02:54.398Z,98458.03
2023-05-12T09:06:03.783Z,98460.00
2023-05-12T09:09:10.245Z,98447.38
2023-05-12T09:12:19.575Z,98455.50
2023-05-12T09:15:39.970Z,98452.25
2023-05-12T09:18:53.841Z,98456.34
2023-05-12T09:22:01.724Z,98456.63
2023-05-12T09:25:20.044Z,98454.13
2023-05-12T09:28:27.017Z,98459.84
2023-05-12T09:31:35.460Z,98461.53
2023-05-12T09:34:41.910Z,98450.44
2023-05-12T09:37:49.821Z,98456.91
2023-05-12T09:40:56.208Z,98451.69
2023-05-12T09:44:06.650Z,98456.25
2023-05-12T09:47:16.473Z,98464.59
2023-05-12T09:50:23.100Z,98460.75
2023-05-12T09:53:29.562Z,98461.50
2023-05-12T09:56:35.535Z,98459.09
2023-05-12T09:59:44.185Z,98457.66
2023-05-12T10:02:53.952Z,98458.81
2023-05-12T10:06:07.903Z,98448.31
2023-05-12T10:09:23.073Z,98442.38
2023-05-12T10:12:29.623Z,98454.88
2023-05-12T10:15:38.053Z,98444.44
2023-05-12T10:18:56.297Z,98445.91
2023-05-12T10:22:03.666Z,98452.44
2023-05-12T10:25:12.045Z,98450.84
2023-05-12T10:28:17.718Z,98451.00
2023-05-12T10:31:26.217Z,98451.06
2023-05-12T10:34:39.061Z,98459.13
2023-05-12T10:37:46.819Z,98445.09
2023-05-12T10:40:58.422Z,98302.47
2023-05-12T10:44:06.378Z,98438.06
2023-05-12T10:47:17.729Z,98444.06
2023-05-12T10:50:33.033Z,98451.38
2023-05-12T10:53:50.118Z,98441.22
2023-05-12T10:57:03.622Z,98453.31
2023-05-12T11:00:17.469Z,98433.16
2023-05-12T11:03:28.906Z,98454.50
2023-05-12T11:06:39.349Z,98448.25
2023-05-12T11:09:58.675Z,98445.34
2023-05-12T11:13:07.415Z,98289.84
2023-05-12T11:16:15.931Z,98446.25
2023-05-12T11:19:22.331Z,98445.47
2023-05-12T11:22:32.236Z,98456.97
2023-05-12T11:25:39.219Z,98446.00
2023-05-12T11:28:46.158Z,98456.38
2023-05-12T11:31:52.907Z,98456.50
2023-05-12T11:34:59.963Z,98460.00
2023-05-12T11:38:19.399Z,98440.72
2023-05-12T11:41:27.363Z,98458.50
2023-05-12T11:44:33.531Z,98457.53
2023-05-12T11:47:40.091Z,98453.47
2023-05-12T11:50:49.815Z,98465.13
2023-05-12T11:53:59.345Z,98464.66
2023-05-12T11:57:05.423Z,98459.53
2023-05-12T12:00:13.269Z,98475.47
2023-05-12T12:03:20.195Z,98475.25
2023-05-12T12:06:26.839Z,98462.91
2023-05-12T12:09:43.329Z,98459.44
2023-05-12T12:12:52.195Z,98462.16
2023-05-12T12:15:57.784Z,98466.88
2023-05-12T12:19:04.335Z,98456.22
2023-05-12T12:22:09.910Z,98462.28
2023-05-12T12:25:19.951Z,98461.72
2023-05-12T12:28:25.652Z,98471.63
2023-05-12T12:31:32.019Z,98462.09
2023-05-12T12:34:37.633Z,98465.00
2023-05-12T12:37:44.951Z,98463.16
2023-05-12T12:40:53.766Z,98471.41
2023-05-12T12:44:00.293Z,98489.97
2023-05-12T12:47:05.849Z,98478.84
2023-05-12T12:50:13.996Z,98474.75
2023-05-12T12:53:19.934Z,98470.56
2023-05-12T12:56:29.125Z,98464.66
2023-05-12T12:59:34.554Z,98467.84
2023-05-12T13:02:41.473Z,98469.59
2023-05-12T13:05:47.742Z,98467.97
2023-05-12T13:08:54.113Z,98458.69
2023-05-12T13:12:02.833Z,98471.06
2023-05-12T13:15:11.074Z,98474.97
2023-05-12T13:18:16.605Z,98475.81
2023-05-12T13:21:23.338Z,98469.47
2023-05-12T13:24:29.690Z,98468.44
2023-05-12T13:27:39.144Z,98462.72
2023-05-12T13:30:44.717Z,98466.38
2023-05-12T13:33:51.220Z,98464.38
2023-05-12T13:36:56.748Z,98469.44
2023-05-12T13:40:03.269Z,98463.59
2023-05-12T13:43:12.625Z,98459.78
2023-05-12T13:46:19.031Z,98458.47
2023-05-12T13:49:24.609Z,98457.13
2023-05-12T13:52:31.097Z,98458.28
2023-05-12T13:55:40.724Z,98463.13
2023-05-12T13:58:50.339Z,98451.88
2023-05-12T14:01:55.932Z,98457.75
2023-05-12T14:05:02.559Z,98450.19
2023-05-12T14:08:08.576Z,98444.91
2023-05-12T14:11:15.031Z,98445.53
2023-05-12T14:14:23.673Z,98453.88
2023-05-12T14:17:30.169Z,98448.88
2023-05-12T14:20:35.884Z,98460.63
2023-05-12T14:23:42.886Z,98456.72
2023-05-12T14:26:48.459Z,98454.91
2023-05-12T14:29:57.634Z,98456.28
2023-05-12T14:33:03.581Z,98452.09
2023-05-12T14:36:11.449Z,98461.47
2023-05-12T14:39:16.972Z,98448.09
2023-05-12T14:42:24.033Z,98455.47
2023-05-12T14:45:32.357Z,98455.47
2023-05-12T14:48:38.775Z,98457.44
2023-05-12T14:51:44.716Z,98458.81
2023-05-12T14:54:51.387Z,98456.78
2023-05-12T14:57:56.865Z,98455.81
2023-05-12T15:01:08.711Z,98461.50
2023-05-12T15:04:14.815Z,98463.84
2023-05-12T15:07:22.752Z,98468.00
2023-05-12T15:10:28.281Z,98464.13
2023-05-12T15:13:34.815Z,98456.44
2023-05-12T15:16:43.455Z,98451.13
2023-05-12T15:19:49.844Z,98458.03
2023-05-12T15:22:55.574Z,98452.19
2023-05-12T15:26:10.537Z,98455.50
2023-05-12T15:29:21.824Z,98456.81
2023-05-12T15:32:31.103Z,98464.22
2023-05-12T15:35:36.974Z,98465.19
2023-05-12T15:38:43.385Z,98472.19
2023-05-12T15:41:50.685Z,98462.53
2023-05-12T15:44:57.735Z,98473.75
2023-05-12T15:48:08.715Z,98467.56
2023-05-12T15:51:15.878Z,98467.22
2023-05-12T15:54:21.859Z,98464.53
2023-05-12T15:57:28.149Z,98464.22
2023-05-12T16:00:36.674Z,98461.53
2023-05-12T16:03:46.132Z,98452.84
2023-05-12T16:06:51.681Z,98459.19
2023-05-12T16:09:58.416Z,98460.53
2023-05-12T16:13:03.865Z,98459.19
2023-05-12T16:16:11.359Z,98468.06
2023-05-12T16:19:20.481Z,98457.38
2023-05-12T16:22:26.815Z,98462.50
2023-05-12T16:25:32.351Z,98467.19
2023-05-12T16:28:38.756Z,98466.16
2023-05-12T16:31:44.648Z,98475.75
2023-05-12T16:34:53.780Z,98483.28
2023-05-12T16:37:59.333Z,98476.09
2023-05-12T16:41:05.915Z,98477.75
2023-05-12T16:44:11.427Z,98491.31
2023-05-12T16:47:18.318Z,98490.09
2023-05-12T16:50:26.637Z,98493.28
2023-05-12T16:53:33.201Z,98490.31
2023-05-12T16:56:38.847Z,98494.66
2023-05-12T16:59:45.475Z,98488.63
2023-05-12T17:02:51.088Z,98493.28
2023-05-12T17:06:00.580Z,98487.84
2023-05-12T17:09:06.246Z,98509.41
2023-05-12T17:12:14.493Z,98495.69
2023-05-12T17:15:20.279Z,98500.22
2023-05-12T17:18:27.333Z,98506.09
2023-05-12T17:21:35.687Z,98514.97
2023-05-12T17:24:42.073Z,98510.09
2023-05-12T17:27:48.377Z,98508.28
2023-05-12T17:30:56.973Z,98508.97
2023-05-12T17:34:02.601Z,98518.00
2023-05-12T17:37:12.149Z,98520.47
2023-05-12T17:40:20.213Z,98517.69
2023-05-12T17:43:26.781Z,98529.28
2023-05-12T17:46:33.028Z,98527.06
2023-05-12T17:49:39.549Z,98531.19
2023-05-12T17:52:47.860Z,98522.69
2023-05-12T17:55:54.652Z,98533.41
2023-05-12T17:59:00.223Z,98533.09
2023-05-12T18:02:06.905Z,98538.72
2023-05-12T18:05:13.372Z,98540.38
2023-05-12T18:08:23.133Z,98542.03
2023-05-12T18:11:29.489Z,98542.03
2023-05-12T18:14:36.502Z,98541.88
2023-05-12T18:17:42.364Z,98536.69
2023-05-12T18:20:49.679Z,98545.28
2023-05-12T18:23:58.521Z,98550.00
2023-05-12T18:27:06.488Z,98551.09
2023-05-12T18:30:13.954Z,98482.28
2023-05-12T18:33:20.721Z,98548.75
2023-05-12T18:36:26.387Z,98560.47
2023-05-12T18:39:35.809Z,98564.34
2023-05-12T18:42:41.985Z,98570.47
2023-05-12T18:45:49.249Z,98563.78
2023-05-12T18:48:55.078Z,98581.50
2023-05-12T18:52:02.160Z,98574.44
2023-05-12T18:55:12.209Z,98580.25
2023-05-12T18:58:18.892Z,98591.91
2023-05-12T19:01:24.984Z,98587.63
2023-05-12T19:04:31.728Z,98581.28
2023-05-12T19:07:37.740Z,98583.31
2023-05-12T19:10:47.890Z,98590.56
2023-05-12T19:13:53.976Z,98570.84
2023-05-12T19:17:00.734Z,98594.94
2023-05-12T19:20:07.749Z,98587.00
2023-05-12T19:23:16.294Z,98582.94
2023-05-12T19:26:25.021Z,98594.00
2023-05-12T19:29:31.793Z,98590.91
2023-05-12T19:32:38.191Z,98598.34
2023-05-12T19:35:46.898Z,98607.63
2023-05-12T19:38:54.559Z,98606.31
2023-05-12T19:42:08.388Z,98614.75
2023-05-12T19:45:15.890Z,98609.22
2023-05-12T19:48:24.006Z,98616.69
2023-05-12T19:51:30.101Z,98624.41
2023-05-12T19:54:38.480Z,98607.78
2023-05-12T19:57:47.177Z,98617.16
2023-05-12T20:00:55.803Z,98608.75
2023-05-12T20:04:02.978Z,98612.84
2023-05-12T20:07:10.856Z,98610.56
2023-05-12T20:10:18.002Z,98605.50
2023-05-12T20:13:27.580Z,98604.78
2023-05-12T20:16:34.185Z,98612.09
2023-05-12T20:19:41.489Z,98610.63
2023-05-12T20:22:47.617Z,98613.75
2023-05-12T20:25:55.835Z,98608.69
2023-05-12T20:29:04.616Z,98610.59
2023-05-12T20:32:14.344Z,98606.47
2023-05-12T20:35:20.962Z,98605.63
2023-05-12T20:38:28.414Z,98609.38
2023-05-12T20:41:34.776Z,98596.38
2023-05-12T20:44:44.433Z,98596.63
2023-05-12T20:47:50.334Z,98596.84
2023-05-12T20:50:57.951Z,98595.41
2023-05-12T20:54:03.860Z,98601.50
2023-05-12T20:57:12.710Z,98592.00
2023-05-12T21:00:22.854Z,98601.75
2023-05-12T21:03:29.870Z,98605.47
2023-05-12T21:06:38.695Z,98603.91
2023-05-12T21:09:46.542Z,98600.75
2023-05-12T21:12:52.423Z,98609.75
2023-05-12T21:16:01.877Z,98604.69
2023-05-12T21:19:07.855Z,98613.00
2023-05-12T21:22:15.451Z,98609.75
2023-05-12T21:25:21.980Z,98612.13
2023-05-12T21:28:28.695Z,98604.41
2023-05-12T21:31:37.346Z,98606.06
2023-05-12T21:34:45.723Z,98604.28
2023-05-12T21:37:52.124Z,98601.97
2023-05-12T21:40:58.582Z,98606.41
2023-05-12T21:44:04.322Z,98606.31
2023-05-12T21:47:13.688Z,98605.81
2023-05-12T21:50:21.976Z,98614.69
2023-05-12T21:53:28.671Z,98605.06
2023-05-12T21:56:34.688Z,98603.28
2023-05-12T21:59:41.206Z,98600.75
2023-05-12T22:02:50.826Z,98557.94
2023-05-12T22:05:57.826Z,98598.84
2023-05-12T22:09:03.480Z,98603.28
2023-05-12T22:12:13.852Z,98616.16
2023-05-12T22:15:19.385Z,98620.06
2023-05-12T22:18:29.215Z,98619.47
2023-05-12T22:21:34.791Z,98614.28
2023-05-12T22:24:41.193Z,98624.91
2023-05-12T22:27:46.984Z,98622.78
2023-05-12T22:30:53.711Z,98627.59
2023-05-12T22:34:02.031Z,98619.31
2023-05-12T22:37:08.972Z,98623.53
2023-05-12T22:40:15.129Z,98622.47
2023-05-12T22:43:21.527Z,98636.31
2023-05-12T22:46:27.105Z,98615.59
2023-05-12T22:49:36.351Z,98630.31
2023-05-12T22:52:42.203Z,98632.19
2023-05-12T22:55:49.238Z,98629.56
2023-05-12T22:58:54.700Z,98633.66
2023-05-12T23:02:01.414Z,98639.19
2023-05-12T23:05:11.098Z,98638.97
2023-05-12T23:08:17.599Z,98635.34
2023-05-12T23:11:23.348Z,98636.19
2023-05-12T23:14:29.779Z,98639.81
2023-05-12T23:17:35.502Z,98628.59
2023-05-12T23:20:44.745Z,98623.75
2023-05-12T23:23:50.174Z,98638.56
2023-05-12T23:26:56.562Z,98635.41
2023-05-12T23:30:03.642Z,98641.19
2023-05-12T23:33:10.206Z,98638.16
2023-05-12T23:36:18.588Z,98636.06
2023-05-12T23:39:25.496Z,98634.84
2023-05-12T23:42:31.349Z,98631.78
2023-05-12T23:45:38.221Z,98628.88
2023-05-12T23:48:43.710Z,98630.28
2023-05-12T23:51:52.900Z,98625.56
2023-05-12T23:54:58.374Z,98625.13
2023-05-12T23:58:04.729Z,98630.13
